Time;durP1;ratioP1;P1;durP2;ratioP2;P2;SDS_P1;SDS_P2;PMS_P1;PMS_P2;Temp;Humidity;BMP_temperature;BMP_pressure;BME280_temperature;BME280_humidity;BME280_pressure;Samples;Min_cycle;Max_cycle;Signal;HPM_P1;HPM_P2
2022/11/26 00:00:51;;;;;;;5.13;2.00;;;22.80;47.60;;;;;;5051819;28;20168;-69
2022/11/26 00:03:19;;;;;;;3.23;1.80;;;22.80;47.50;;;;;;5039897;28;20246;-73
2022/11/26 00:05:50;;;;;;;5.90;2.27;;;22.80;46.60;;;;;;5053731;28;20195;-71
2022/11/26 00:08:26;;;;;;;3.13;1.80;;;23.00;45.60;;;;;;5047187;28;20194;-72
2022/11/26 00:10:54;;;;;;;2.73;1.80;;;22.90;47.10;;;;;;5043322;28;20184;-73
2022/11/26 00:13:28;;;;;;;4.40;1.63;;;23.00;46.60;;;;;;5046153;28;20192;-72
2022/11/26 00:15:56;;;;;;;4.10;1.90;;;23.30;45.10;;;;;;5049047;28;20180;-70
2022/11/26 00:18:27;;;;;;;2.67;1.77;;;23.40;45.00;;;;;;5044334;28;20224;-71
2022/11/26 00:20:59;;;;;;;4.00;1.77;;;23.50;44.60;;;;;;5043143;28;20647;-71
2022/11/26 00:23:28;;;;;;;3.97;2.10;;;23.70;45.30;;;;;;5037042;28;20176;-72
2022/11/26 00:26:01;;;;;;;3.83;1.67;;;23.30;45.40;;;;;;5035841;28;20191;-72
2022/11/26 00:28:32;;;;;;;5.97;1.80;;;23.40;45.90;;;;;;5040614;28;20646;-72
2022/11/26 00:31:02;;;;;;;5.40;2.33;;;23.50;45.30;;;;;;5049199;28;20176;-72
2022/11/26 00:33:31;;;;;;;4.40;1.77;;;23.40;46.00;;;;;;5053103;28;20180;-72
2022/11/26 00:36:17;;;;;;;4.00;1.70;;;23.30;45.70;;;;;;5051161;28;20168;-72
2022/11/26 00:39:16;;;;;;;5.83;1.93;;;23.60;44.40;;;;;;5050344;28;20218;-72
2022/11/26 00:41:49;;;;;;;5.27;1.67;;;23.70;44.60;;;;;;5035963;28;20224;-70
2022/11/26 00:44:24;;;;;;;3.80;1.83;;;23.50;43.60;;;;;;5048120;28;20554;-72
2022/11/26 00:46:52;;;;;;;4.13;1.60;;;23.80;43.00;;;;;;5032940;28;20216;-73
2022/11/26 00:49:20;;;;;;;4.67;1.70;;;24.10;43.30;;;;;;5044739;28;20176;-72
2022/11/26 00:51:47;;;;;;;3.77;2.03;;;24.00;43.80;;;;;;5051350;28;20182;-72
2022/11/26 00:54:25;;;;;;;6.00;1.70;;;23.90;43.40;;;;;;5046087;28;20183;-71
2022/11/26 00:56:52;;;;;;;5.33;2.07;;;23.80;44.20;;;;;;5046510;28;20367;-72
2022/11/26 00:59:22;;;;;;;3.30;1.80;;;23.80;44.90;;;;;;5052304;28;20258;-70
2022/11/26 01:01:58;;;;;;;4.97;1.87;;;23.50;45.60;;;;;;5032705;28;20180;-70
2022/11/26 01:04:32;;;;;;;4.40;1.80;;;23.90;44.90;;;;;;5034433;28;20599;-71
2022/11/26 01:07:02;;;;;;;5.47;2.10;;;24.00;44.50;;;;;;5032695;28;20631;-71
2022/11/26 01:09:30;;;;;;;3.03;1.53;;;24.10;44.80;;;;;;5032509;28;20263;-71
2022/11/26 01:11:57;;;;;;;5.93;1.90;;;24.00;44.50;;;;;;5043088;28;20188;-71
2022/11/26 01:14:30;;;;;;;4.57;2.10;;;24.00;45.60;;;;;;5032796;28;20226;-72
2022/11/26 01:17:08;;;;;;;3.57;1.50;;;24.30;44.50;;;;;;5045655;28;20574;-72
2022/11/26 01:19:38;;;;;;;6.20;2.00;;;24.40;44.50;;;;;;5044152;28;20184;-72
2022/11/26 01:22:08;;;;;;;5.53;2.07;;;24.80;43.90;;;;;;5035315;28;20192;-71
2022/11/26 01:24:35;;;;;;;6.17;2.10;;;24.60;44.20;;;;;;5037554;28;20258;-72
2022/11/26 01:27:05;;;;;;;3.67;1.80;;;24.70;45.30;;;;;;5034270;28;20180;-71
2022/11/26 01:29:33;;;;;;;11.77;2.33;;;24.60;43.60;;;;;;5041883;28;20259;-72
2022/11/26 01:32:00;;;;;;;5.93;2.00;;;24.00;45.70;;;;;;5037146;28;20180;-71
2022/11/26 01:34:28;;;;;;;5.23;2.53;;;23.40;47.80;;;;;;5044286;28;20256;-72
2022/11/26 01:36:55;;;;;;;7.60;2.10;;;23.30;49.40;;;;;;5031926;28;20651;-71
2022/11/26 01:39:23;;;;;;;4.53;1.93;;;23.80;48.70;;;;;;5048118;28;20274;-71
2022/11/26 01:42:06;;;;;;;6.17;2.27;;;24.30;47.40;;;;;;5044308;28;20698;-71
2022/11/26 01:44:36;;;;;;;4.60;2.13;;;23.70;47.30;;;;;;5046925;28;20187;-72
2022/11/26 01:47:22;;;;;;;7.20;2.00;;;23.50;48.80;;;;;;5044042;28;20216;-71
2022/11/26 01:50:26;;;;;;;10.30;1.93;;;23.80;47.10;;;;;;5041418;28;20194;-72
2022/11/26 01:52:55;;;;;;;6.83;2.93;;;23.80;47.50;;;;;;5033621;28;20657;-71
2022/11/26 01:55:23;;;;;;;14.37;6.17;;;24.50;46.60;;;;;;5032381;28;20180;-73
2022/11/26 01:57:51;;;;;;;6.53;2.20;;;24.30;47.90;;;;;;5042051;28;20199;-70
2022/11/26 02:00:19;;;;;;;6.57;2.37;;;24.50;46.10;;;;;;5041767;28;20216;-71
2022/11/26 02:02:46;;;;;;;6.77;2.00;;;24.70;46.20;;;;;;5037844;28;20208;-72
2022/11/26 02:05:42;;;;;;;7.43;2.70;;;24.70;45.30;;;;;;5032368;28;20603;-71
2022/11/26 02:08:11;;;;;;;8.70;2.00;;;24.70;46.10;;;;;;5031735;28;20199;-70
2022/11/26 02:10:39;;;;;;;4.43;2.07;;;25.10;45.50;;;;;;5032114;28;20172;-69
2022/11/26 02:13:06;;;;;;;3.90;1.77;;;24.80;45.80;;;;;;5032016;28;20212;-70
2022/11/26 02:15:58;;;;;;;6.90;1.80;;;24.90;46.70;;;;;;5031414;28;20222;-69
2022/11/26 02:18:31;;;;;;;6.70;1.87;;;25.10;45.80;;;;;;5031534;28;20220;-71
2022/11/26 02:21:07;;;;;;;6.87;2.20;;;25.20;45.90;;;;;;5031935;28;20307;-70
2022/11/26 02:23:57;;;;;;;5.43;2.20;;;25.50;44.30;;;;;;5031556;28;20674;-71
2022/11/26 02:26:51;;;;;;;4.77;2.03;;;25.60;45.10;;;;;;5031865;28;20267;-71
2022/11/26 02:29:45;;;;;;;7.00;2.50;;;25.50;43.80;;;;;;5042177;28;20184;-71
2022/11/26 02:32:29;;;;;;;5.07;2.00;;;25.50;44.20;;;;;;5046555;28;20185;-71
2022/11/26 02:35:18;;;;;;;5.00;2.10;;;25.70;43.80;;;;;;5031813;28;20173;-72
2022/11/26 02:38:11;;;;;;;5.90;1.80;;;25.60;43.70;;;;;;5031369;28;20226;-71
2022/11/26 02:40:38;;;;;;;3.10;2.07;;;25.90;43.60;;;;;;5035574;28;20169;-71
2022/11/26 02:43:06;;;;;;;6.67;2.10;;;25.50;43.40;;;;;;5035988;28;20196;-72
2022/11/26 02:45:38;;;;;;;4.30;2.10;;;25.70;43.30;;;;;;5035958;28;20173;-71
2022/11/26 02:48:10;;;;;;;5.93;1.90;;;25.30;43.50;;;;;;5035788;28;20639;-71
2022/11/26 02:50:48;;;;;;;6.47;2.00;;;25.30;43.20;;;;;;5035075;28;20541;-72
2022/11/26 02:53:18;;;;;;;5.70;1.97;;;25.60;43.10;;;;;;5035444;28;20173;-71
2022/11/26 02:55:50;;;;;;;5.33;1.80;;;25.70;42.20;;;;;;5035921;28;20161;-72
2022/11/26 02:58:18;;;;;;;3.27;1.90;;;25.80;43.20;;;;;;5037625;28;20196;-71
2022/11/26 03:00:50;;;;;;;6.93;1.80;;;25.90;43.30;;;;;;5055618;28;20172;-72
2022/11/26 03:03:34;;;;;;;6.07;2.00;;;26.20;42.00;;;;;;5040894;28;20659;-71
2022/11/26 03:06:11;;;;;;;7.00;2.30;;;25.80;43.10;;;;;;5035678;28;20223;-71
2022/11/26 03:08:38;;;;;;;5.17;1.90;;;26.20;42.20;;;;;;5035464;28;20223;-71
2022/11/26 03:11:07;;;;;;;6.50;2.17;;;26.60;42.00;;;;;;5035535;28;20187;-71
2022/11/26 03:13:34;;;;;;;4.90;1.70;;;26.70;42.00;;;;;;5035504;28;20180;-72
2022/11/26 03:16:01;;;;;;;4.70;1.80;;;26.80;41.00;;;;;;5047360;28;20208;-70
2022/11/26 03:18:29;;;;;;;5.77;1.83;;;26.20;42.10;;;;;;5038404;28;20224;-72
2022/11/26 03:20:56;;;;;;;4.33;1.80;;;24.90;45.60;;;;;;5035526;28;20219;-72
2022/11/26 03:23:24;;;;;;;7.87;2.20;;;25.20;45.50;;;;;;5044404;28;20184;-72
2022/11/26 03:25:51;;;;;;;8.33;2.37;;;25.50;44.90;;;;;;5042471;28;20287;-73
2022/11/26 03:28:18;;;;;;;7.10;2.63;;;25.70;44.40;;;;;;5037377;28;20184;-72
2022/11/26 03:30:49;;;;;;;6.20;2.00;;;25.30;44.50;;;;;;5044032;28;20173;-72
2022/11/26 03:33:16;;;;;;;4.57;2.03;;;25.40;45.20;;;;;;5034987;28;20185;-72
2022/11/26 03:35:44;;;;;;;5.23;1.80;;;25.80;43.50;;;;;;5034001;28;20181;-71
2022/11/26 03:38:11;;;;;;;4.53;2.20;;;26.10;43.30;;;;;;5034927;28;20216;-72
2022/11/26 03:40:39;;;;;;;8.10;2.50;;;26.70;42.40;;;;;;5035098;28;20267;-72
2022/11/26 03:43:06;;;;;;;5.77;2.23;;;26.30;42.70;;;;;;5035009;28;20177;-72
2022/11/26 03:45:33;;;;;;;5.27;2.10;;;26.10;43.40;;;;;;5034726;28;20213;-72
2022/11/26 03:48:01;;;;;;;5.57;1.70;;;26.10;42.70;;;;;;5040529;28;20227;-72
2022/11/26 03:50:31;;;;;;;9.77;1.67;;;26.70;40.10;;;;;;5035353;28;20211;-71
2022/11/26 03:52:59;;;;;;;5.93;1.90;;;26.50;40.70;;;;;;5033616;28;20188;-70
2022/11/26 03:55:26;;;;;;;5.17;1.87;;;26.60;40.60;;;;;;5034030;28;20173;-72
2022/11/26 03:57:53;;;;;;;6.67;2.07;;;26.60;40.10;;;;;;5033554;28;20212;-71
2022/11/26 04:00:21;;;;;;;11.23;1.70;;;26.80;40.10;;;;;;5036079;28;20220;-70
2022/11/26 04:02:49;;;;;;;6.27;1.70;;;26.80;39.80;;;;;;5037064;28;20173;-71
2022/11/26 04:05:16;;;;;;;4.90;1.87;;;26.20;41.00;;;;;;5034531;28;20191;-72
2022/11/26 04:07:44;;;;;;;7.00;1.97;;;25.80;41.60;;;;;;5046666;28;20233;-71
2022/11/26 04:10:11;;;;;;;5.37;1.57;;;26.50;40.50;;;;;;5047203;28;20216;-71
2022/11/26 04:12:40;;;;;;;4.93;1.60;;;26.40;40.50;;;;;;5035249;28;20580;-71
2022/11/26 04:15:08;;;;;;;5.97;1.60;;;26.00;41.60;;;;;;5045694;28;20219;-72
2022/11/26 04:17:35;;;;;;;8.40;4.23;;;26.30;41.40;;;;;;5045794;28;20768;-71
2022/11/26 04:20:03;;;;;;;8.77;5.37;;;26.40;40.90;;;;;;5052099;28;20247;-71
2022/11/26 04:22:31;;;;;;;10.17;1.80;;;26.40;41.30;;;;;;5052213;28;20195;-72
2022/11/26 04:24:58;;;;;;;3.37;1.30;;;26.80;40.20;;;;;;5033494;28;20183;-71
2022/11/26 04:27:26;;;;;;;7.33;1.73;;;26.50;40.20;;;;;;5038780;28;20184;-70
2022/11/26 04:29:53;;;;;;;5.87;1.70;;;26.80;39.20;;;;;;5038428;28;20261;-72
2022/11/26 04:32:21;;;;;;;4.17;1.40;;;26.80;39.80;;;;;;5048922;28;20626;-71
2022/11/26 04:34:48;;;;;;;5.07;1.37;;;26.80;39.30;;;;;;5048454;28;20256;-74
2022/11/26 04:37:15;;;;;;;3.97;1.60;;;26.60;40.80;;;;;;5039921;28;20226;-71
2022/11/26 04:39:43;;;;;;;5.60;1.70;;;26.60;40.80;;;;;;5047553;28;20188;-72
2022/11/26 04:42:11;;;;;;;8.33;1.60;;;26.90;40.50;;;;;;5046808;28;20165;-75
2022/11/26 04:44:38;;;;;;;6.27;1.63;;;26.90;40.70;;;;;;5046924;28;20195;-71
2022/11/26 04:47:06;;;;;;;4.90;1.17;;;26.50;40.80;;;;;;5042639;28;20233;-72
2022/11/26 04:49:34;;;;;;;5.67;1.50;;;26.30;40.60;;;;;;5045222;28;20191;-72
2022/11/26 04:52:01;;;;;;;5.13;1.60;;;26.50;40.90;;;;;;5043374;28;20265;-71
2022/11/26 04:54:29;;;;;;;6.23;1.70;;;26.70;40.50;;;;;;5038945;28;20219;-72
2022/11/26 04:56:56;;;;;;;11.53;2.63;;;26.60;40.60;;;;;;5044640;28;20368;-71
2022/11/26 04:59:23;;;;;;;9.37;1.97;;;26.50;42.40;;;;;;5048660;28;20188;-73
2022/11/26 05:01:51;;;;;;;3.90;1.47;;;26.90;40.80;;;;;;5043861;28;20172;-73
2022/11/26 05:04:19;;;;;;;6.70;1.77;;;26.90;40.40;;;;;;5040931;28;20261;-73
2022/11/26 05:06:46;;;;;;;4.97;1.53;;;27.00;40.00;;;;;;5045700;28;20187;-73
2022/11/26 05:09:14;;;;;;;7.57;1.73;;;27.30;39.80;;;;;;5030899;28;20628;-74
2022/11/26 05:11:41;;;;;;;3.07;1.33;;;27.60;39.30;;;;;;5032402;28;20200;-72
2022/11/26 05:14:08;;;;;;;5.10;1.40;;;26.70;40.50;;;;;;5037002;28;20181;-72
2022/11/26 05:16:36;;;;;;;4.73;1.30;;;26.10;42.10;;;;;;5032169;28;20548;-69
2022/11/26 05:19:03;;;;;;;5.07;1.20;;;25.70;42.60;;;;;;5037058;28;20216;-70
2022/11/26 05:21:31;;;;;;;6.20;1.57;;;25.70;41.80;;;;;;5032691;28;20184;-71
2022/11/26 05:23:58;;;;;;;9.27;1.70;;;25.70;42.20;;;;;;5033962;28;20175;-69
2022/11/26 05:26:26;;;;;;;7.93;1.70;;;25.70;43.10;;;;;;5032140;28;20180;-70
2022/11/26 05:28:53;;;;;;;4.90;1.70;;;25.50;44.10;;;;;;5050520;28;20266;-71
2022/11/26 05:31:21;;;;;;;5.47;1.80;;;26.40;42.00;;;;;;5042161;28;20189;-70
2022/11/26 05:33:48;;;;;;;6.77;1.30;;;26.50;42.10;;;;;;5037160;28;20185;-70
2022/11/26 05:36:16;;;;;;;6.93;1.60;;;27.30;40.70;;;;;;5035203;28;20184;-72
2022/11/26 05:38:43;;;;;;;4.80;1.23;;;26.70;41.70;;;;;;5035522;28;20213;-72
2022/11/26 05:41:10;;;;;;;7.60;2.43;;;26.40;42.40;;;;;;5038087;28;20184;-71
2022/11/26 05:43:38;;;;;;;6.70;2.03;;;26.60;42.20;;;;;;5046338;28;20219;-71
2022/11/26 05:46:09;;;;;;;6.40;3.03;;;26.40;42.00;;;;;;5048429;28;20773;-71
2022/11/26 05:48:36;;;;;;;6.87;1.33;;;26.00;43.50;;;;;;5041501;28;20180;-72
2022/11/26 05:51:04;;;;;;;5.87;1.50;;;25.80;44.00;;;;;;5035981;28;20860;-71
2022/11/26 05:53:31;;;;;;;6.03;1.97;;;24.80;46.00;;;;;;5033600;28;20194;-72
2022/11/26 05:55:58;;;;;;;4.47;1.30;;;25.20;45.80;;;;;;5031544;28;20184;-71
2022/11/26 05:58:26;;;;;;;5.67;1.20;;;25.80;44.40;;;;;;5046269;28;20693;-72
2022/11/26 06:00:53;;;;;;;7.07;1.20;;;25.30;44.70;;;;;;5031828;28;20654;-70
2022/11/26 06:03:21;;;;;;;3.73;1.30;;;24.80;46.40;;;;;;5031949;28;20192;-69
2022/11/26 06:05:48;;;;;;;4.90;1.80;;;25.10;45.80;;;;;;5042865;28;20200;-71
2022/11/26 06:08:16;;;;;;;4.83;1.63;;;25.40;44.80;;;;;;5031975;28;20207;-71
2022/11/26 06:10:44;;;;;;;6.83;1.30;;;25.20;46.00;;;;;;5032552;28;20279;-70
2022/11/26 06:13:11;;;;;;;7.30;1.70;;;24.80;45.60;;;;;;5040157;28;20540;-70
2022/11/26 06:15:39;;;;;;;4.07;1.50;;;24.20;47.50;;;;;;5042134;28;20186;-70
2022/11/26 06:18:06;;;;;;;5.13;1.23;;;23.80;48.20;;;;;;5032181;28;20200;-71
2022/11/26 06:20:34;;;;;;;6.27;1.60;;;23.90;48.10;;;;;;5036054;28;20186;-69
2022/11/26 06:23:01;;;;;;;6.67;1.43;;;24.30;48.00;;;;;;5038004;28;20207;-71
2022/11/26 06:25:30;;;;;;;8.47;1.33;;;24.50;47.20;;;;;;5032000;28;20188;-70
2022/11/26 06:27:58;;;;;;;6.50;1.50;;;24.90;45.90;;;;;;5033865;28;20202;-71
2022/11/26 06:30:25;;;;;;;4.40;1.50;;;24.60;45.50;;;;;;5039919;28;20267;-74
2022/11/26 06:32:53;;;;;;;6.13;1.90;;;24.40;46.10;;;;;;5035091;28;20649;-71
2022/11/26 06:35:20;;;;;;;7.87;1.60;;;24.00;47.30;;;;;;5031454;28;20176;-73
2022/11/26 06:37:48;;;;;;;3.70;1.43;;;24.10;47.40;;;;;;5031915;28;20217;-71
2022/11/26 06:40:20;;;;;;;7.37;1.50;;;24.30;46.90;;;;;;5031194;28;20520;-71
2022/11/26 06:42:51;;;;;;;5.40;1.43;;;24.60;47.10;;;;;;5033481;28;20266;-71
2022/11/26 06:45:20;;;;;;;4.53;1.30;;;24.00;47.90;;;;;;5037016;28;20532;-69
2022/11/26 06:47:50;;;;;;;7.50;2.37;;;23.30;49.70;;;;;;5037453;28;20216;-71
2022/11/26 06:50:19;;;;;;;6.43;1.77;;;23.40;50.40;;;;;;5035928;28;20188;-73
2022/11/26 06:52:53;;;;;;;6.83;1.83;;;23.30;50.10;;;;;;5040260;28;20173;-73
2022/11/26 06:55:21;;;;;;;4.57;1.63;;;23.70;49.20;;;;;;5033867;28;20678;-72
2022/11/26 06:57:52;;;;;;;4.17;1.90;;;23.50;49.60;;;;;;5037322;28;20203;-72
2022/11/26 07:00:20;;;;;;;4.80;1.90;;;23.60;50.40;;;;;;5034801;28;20177;-71
2022/11/26 07:02:48;;;;;;;9.03;2.00;;;23.30;51.60;;;;;;5032466;28;20528;-72
2022/11/26 07:05:15;;;;;;;5.60;2.63;;;23.30;50.90;;;;;;5034016;28;20188;-72
2022/11/26 07:07:43;;;;;;;8.13;5.00;;;22.70;53.20;;;;;;5032815;28;20180;-71
2022/11/26 07:10:10;;;;;;;8.00;3.27;;;22.30;53.00;;;;;;5039951;28;20179;-71
2022/11/26 07:12:38;;;;;;;9.60;1.83;;;22.10;54.90;;;;;;5032055;28;20169;-70
2022/11/26 07:15:06;;;;;;;5.63;1.73;;;22.10;54.70;;;;;;5047853;28;20199;-69
2022/11/26 07:17:33;;;;;;;9.20;1.80;;;22.00;55.30;;;;;;5042211;28;20209;-70
2022/11/26 07:20:01;;;;;;;10.83;2.07;;;21.90;54.60;;;;;;5030781;28;20188;-70
2022/11/26 07:22:28;;;;;;;6.93;2.20;;;21.70;54.70;;;;;;5045696;28;20188;-70
2022/11/26 07:24:55;;;;;;;9.03;1.77;;;21.80;54.90;;;;;;5032876;28;20189;-71
2022/11/26 07:27:23;;;;;;;9.23;1.73;;;21.50;56.60;;;;;;5034334;28;20268;-71
2022/11/26 07:29:50;;;;;;;8.57;2.10;;;21.50;56.90;;;;;;5044099;28;20177;-71
2022/11/26 07:32:18;;;;;;;9.30;2.87;;;21.30;58.00;;;;;;5046810;28;20196;-72
2022/11/26 07:34:45;;;;;;;8.13;2.03;;;21.20;59.00;;;;;;5035121;28;20200;-72
2022/11/26 07:37:13;;;;;;;11.43;2.70;;;21.30;58.70;;;;;;5041713;28;20184;-72
2022/11/26 07:39:40;;;;;;;10.13;2.00;;;21.30;58.70;;;;;;5036502;28;20238;-72
2022/11/26 07:42:08;;;;;;;8.93;1.77;;;21.00;59.20;;;;;;5034614;28;20183;-71
2022/11/26 07:44:35;;;;;;;7.73;1.93;;;21.10;58.90;;;;;;5034529;28;20185;-72
2022/11/26 07:47:03;;;;;;;8.23;2.47;;;21.40;57.70;;;;;;5037383;28;20741;-72
2022/11/26 07:49:30;;;;;;;12.27;2.57;;;21.20;58.10;;;;;;5034906;28;20177;-72
2022/11/26 07:51:58;;;;;;;7.50;2.30;;;21.00;58.30;;;;;;5038964;28;20263;-73
2022/11/26 07:54:25;;;;;;;3.83;2.00;;;21.00;58.80;;;;;;5045093;28;20200;-71
2022/11/26 07:56:52;;;;;;;8.07;2.10;;;20.80;59.90;;;;;;5033976;28;20177;-71
2022/11/26 07:59:21;;;;;;;7.43;2.20;;;20.80;60.60;;;;;;5044175;28;20211;-70
2022/11/26 08:01:48;;;;;;;11.77;2.20;;;20.80;61.10;;;;;;5043302;28;20203;-71
2022/11/26 08:04:16;;;;;;;8.67;2.20;;;20.80;61.30;;;;;;5043019;28;20184;-71
2022/11/26 08:06:43;;;;;;;10.00;3.27;;;21.00;61.50;;;;;;5038976;28;20520;-70
2022/11/26 08:09:11;;;;;;;12.43;2.17;;;20.90;62.00;;;;;;5053013;28;20203;-72
2022/11/26 08:11:38;;;;;;;10.13;2.67;;;20.80;62.00;;;;;;5049955;28;20176;-72
2022/11/26 08:14:09;;;;;;;13.00;2.70;;;20.80;62.70;;;;;;5042699;28;20184;-70
2022/11/26 08:16:37;;;;;;;6.87;1.97;;;20.80;62.60;;;;;;5033939;28;20180;-70
2022/11/26 08:19:12;;;;;;;12.83;2.07;;;20.70;62.80;;;;;;5033879;28;20334;-72
2022/11/26 08:21:39;;;;;;;7.77;2.13;;;20.60;62.70;;;;;;5035794;28;20507;-71
2022/11/26 08:24:07;;;;;;;10.73;2.37;;;20.60;62.50;;;;;;5033816;28;20643;-71
2022/11/26 08:26:35;;;;;;;9.57;2.13;;;20.40;62.60;;;;;;5033595;28;20176;-70
2022/11/26 08:29:02;;;;;;;7.37;2.00;;;20.30;63.20;;;;;;5040692;28;20179;-70
2022/11/26 08:31:30;;;;;;;10.47;2.03;;;20.30;63.40;;;;;;5048385;28;20266;-71
2022/11/26 08:33:59;;;;;;;11.43;1.80;;;20.30;63.60;;;;;;5045620;28;20185;-72
2022/11/26 08:36:27;;;;;;;9.90;2.13;;;20.10;64.40;;;;;;5034569;28;20177;-71
2022/11/26 08:38:57;;;;;;;9.70;2.07;;;20.10;64.80;;;;;;5051454;28;20212;-71
2022/11/26 08:41:25;;;;;;;13.13;2.40;;;20.20;64.80;;;;;;5052014;28;20187;-71
2022/11/26 08:43:52;;;;;;;10.00;2.00;;;20.00;64.90;;;;;;5044876;28;20787;-71
2022/11/26 08:46:21;;;;;;;10.93;2.40;;;19.90;65.50;;;;;;5047700;28;20219;-70
2022/11/26 08:48:48;;;;;;;13.87;2.00;;;19.80;65.80;;;;;;5043912;28;20199;-70
2022/11/26 08:51:16;;;;;;;8.83;2.20;;;19.70;65.20;;;;;;5033568;28;20177;-71
2022/11/26 08:53:44;;;;;;;5.57;1.27;;;19.70;65.50;;;;;;5046269;28;20184;-71
2022/11/26 08:56:13;;;;;;;7.13;2.10;;;19.60;65.20;;;;;;5040071;28;20612;-70
2022/11/26 08:58:47;;;;;;;7.17;1.87;;;19.50;65.60;;;;;;5039553;28;20277;-70
2022/11/26 09:01:17;;;;;;;10.07;2.17;;;19.50;65.70;;;;;;5043347;28;20634;-70
2022/11/26 09:03:48;;;;;;;8.97;1.60;;;19.50;66.20;;;;;;5033395;28;20642;-70
2022/11/26 09:06:16;;;;;;;10.53;1.87;;;19.50;66.70;;;;;;5040099;28;20605;-70
2022/11/26 09:11:29;;;;;;;11.27;1.70;;;19.40;67.30;;;;;;5036945;28;20202;-71
2022/11/26 09:13:58;;;;;;;9.93;2.50;;;19.40;67.70;;;;;;5045780;28;20191;-70
2022/11/26 09:16:26;;;;;;;10.93;1.90;;;19.30;67.60;;;;;;5051280;28;20215;-70
2022/11/26 09:18:53;;;;;;;7.90;1.87;;;19.30;68.30;;;;;;5037817;28;20220;-71
2022/11/26 09:21:21;;;;;;;8.53;2.00;;;19.30;68.10;;;;;;5033238;28;20172;-72
2022/11/26 09:23:49;;;;;;;7.27;2.10;;;19.30;68.20;;;;;;5036987;28;20594;-73
2022/11/26 09:26:20;;;;;;;9.20;1.70;;;19.20;68.50;;;;;;5036534;28;20241;-72
2022/11/26 09:28:48;;;;;;;10.90;2.40;;;19.20;68.80;;;;;;5039528;28;20615;-71
2022/11/26 09:31:16;;;;;;;11.33;1.90;;;19.20;69.10;;;;;;5034353;28;20176;-72
2022/11/26 09:33:44;;;;;;;7.87;2.17;;;19.20;69.20;;;;;;5032649;28;20185;-70
2022/11/26 09:36:13;;;;;;;8.33;1.50;;;19.10;69.40;;;;;;5042927;28;20262;-69
2022/11/26 09:38:41;;;;;;;6.67;1.77;;;19.20;69.60;;;;;;5037590;28;20261;-70
2022/11/26 09:41:27;;;;;;;8.83;2.10;;;19.20;70.00;;;;;;5033391;28;20173;-70
2022/11/26 09:44:19;;;;;;;12.70;2.13;;;19.10;69.90;;;;;;5050341;28;20176;-70
2022/11/26 09:47:27;;;;;;;10.53;2.27;;;19.20;69.90;;;;;;5042238;28;20812;-70
2022/11/26 09:50:03;;;;;;;11.03;2.10;;;19.10;70.30;;;;;;5042501;28;20188;-71
2022/11/26 09:52:42;;;;;;;9.77;2.20;;;19.10;70.20;;;;;;5072647;28;20186;-70
2022/11/26 09:55:23;;;;;;;8.03;1.90;;;19.10;70.60;;;;;;5048500;28;20361;-70
2022/11/26 09:58:06;;;;;;;7.50;1.83;;;19.10;70.60;;;;;;5035723;28;20204;-69
2022/11/26 10:00:39;;;;;;;10.87;1.93;;;19.10;70.70;;;;;;5032127;28;20615;-70
2022/11/26 10:03:18;;;;;;;4.33;1.53;;;19.00;70.90;;;;;;5037763;28;20180;-70
2022/11/26 10:05:54;;;;;;;9.27;1.90;;;19.10;71.20;;;;;;5037483;28;20168;-71
2022/11/26 10:08:53;;;;;;;12.27;2.03;;;19.00;71.20;;;;;;5049236;28;20186;-69
2022/11/26 10:11:28;;;;;;;9.00;2.40;;;18.90;71.50;;;;;;5033362;28;20259;-70
2022/11/26 10:14:13;;;;;;;8.73;1.83;;;18.90;71.90;;;;;;5036048;28;20180;-71
2022/11/26 10:16:47;;;;;;;12.43;2.37;;;18.90;72.00;;;;;;5041436;28;20228;-70
2022/11/26 10:19:32;;;;;;;12.57;2.27;;;18.90;72.00;;;;;;5037782;28;20224;-70
2022/11/26 10:22:05;;;;;;;11.60;2.30;;;18.80;72.30;;;;;;5042462;28;20194;-70
2022/11/26 10:24:40;;;;;;;9.53;2.20;;;18.80;72.40;;;;;;5032476;28;20181;-70
2022/11/26 10:27:17;;;;;;;13.70;3.20;;;18.80;72.50;;;;;;5036025;28;20714;-70
2022/11/26 10:29:55;;;;;;;10.43;3.90;;;18.80;72.70;;;;;;5039941;28;20206;-70
2022/11/26 10:32:31;;;;;;;10.83;3.03;;;18.80;72.80;;;;;;5044452;28;20222;-70
2022/11/26 10:34:59;;;;;;;14.17;2.83;;;18.90;72.80;;;;;;5031695;28;20176;-70
2022/11/26 10:37:28;;;;;;;14.03;3.07;;;18.80;72.90;;;;;;5035747;28;20183;-69
2022/11/26 10:39:58;;;;;;;10.33;2.17;;;18.80;73.20;;;;;;5041984;28;20185;-69
2022/11/26 10:42:25;;;;;;;7.80;2.47;;;18.80;73.20;;;;;;5034933;28;20191;-70
2022/11/26 10:44:53;;;;;;;8.27;2.17;;;18.80;73.40;;;;;;5044110;28;20181;-70
2022/11/26 10:47:23;;;;;;;12.17;2.80;;;18.80;73.40;;;;;;5040252;28;20224;-69
2022/11/26 10:50:11;;;;;;;9.70;2.03;;;18.80;73.80;;;;;;5045685;28;20211;-70
2022/11/26 10:52:38;;;;;;;8.60;2.70;;;18.70;74.00;;;;;;5040415;28;20495;-70
2022/11/26 10:55:29;;;;;;;12.03;2.67;;;18.70;73.80;;;;;;5049385;28;20187;-70
2022/11/26 10:58:14;;;;;;;15.30;2.67;;;18.70;74.10;;;;;;5032750;28;20677;-69
2022/11/26 11:00:47;;;;;;;14.53;2.60;;;18.70;74.10;;;;;;5036761;28;20532;-70
2022/11/26 11:03:22;;;;;;;17.03;2.70;;;18.70;74.10;;;;;;5054663;28;20186;-71
2022/11/26 11:05:50;;;;;;;18.23;2.67;;;18.70;74.10;;;;;;5038235;28;20176;-70
2022/11/26 11:08:33;;;;;;;5.73;2.10;;;18.60;74.30;;;;;;5036697;28;20181;-71
2022/11/26 11:11:02;;;;;;;9.53;2.13;;;18.60;74.10;;;;;;5054609;28;20202;-71
2022/11/26 11:13:43;;;;;;;9.57;2.90;;;18.60;74.50;;;;;;5051083;28;20642;-70
2022/11/26 11:16:13;;;;;;;6.97;1.87;;;18.70;74.60;;;;;;5042724;28;20178;-71
2022/11/26 11:18:56;;;;;;;9.90;2.03;;;18.70;74.70;;;;;;5041042;28;20226;-70
2022/11/26 11:21:28;;;;;;;7.13;2.70;;;18.60;74.60;;;;;;5041400;28;20203;-71
2022/11/26 11:24:14;;;;;;;8.83;2.20;;;18.60;74.50;;;;;;5047605;28;20181;-70
2022/11/26 11:26:47;;;;;;;12.03;2.67;;;18.70;74.70;;;;;;5043828;28;20191;-71
2022/11/26 11:29:26;;;;;;;10.93;2.57;;;18.60;74.60;;;;;;5044449;28;20198;-69
2022/11/26 11:31:54;;;;;;;13.37;2.20;;;18.60;74.70;;;;;;5046901;28;20620;-70
2022/11/26 11:34:41;;;;;;;11.60;2.73;;;18.50;74.80;;;;;;5048219;28;20547;-70
2022/11/26 11:37:20;;;;;;;8.13;1.97;;;18.50;74.90;;;;;;5040154;28;20180;-70
2022/11/26 11:40:05;;;;;;;12.00;2.77;;;18.60;75.00;;;;;;5047623;28;20651;-70
2022/11/26 11:42:33;;;;;;;9.00;2.70;;;18.50;74.60;;;;;;5047857;28;20195;-71
2022/11/26 11:45:03;;;;;;;9.60;2.23;;;18.50;74.70;;;;;;5053209;28;20179;-71
2022/11/26 11:47:38;;;;;;;10.87;2.40;;;18.50;74.90;;;;;;5039929;28;20229;-72
2022/11/26 11:50:40;;;;;;;8.40;2.17;;;18.50;74.70;;;;;;5046416;28;20688;-70
2022/11/26 11:53:17;;;;;;;11.20;2.87;;;18.50;74.80;;;;;;5052424;28;20249;-71
2022/11/26 11:55:53;;;;;;;14.33;2.30;;;18.40;74.80;;;;;;5048607;28;20711;-70
2022/11/26 11:58:34;;;;;;;12.30;2.10;;;18.40;75.00;;;;;;5041324;28;20227;-70
2022/11/26 12:01:20;;;;;;;12.23;2.67;;;18.40;75.00;;;;;;5050721;28;20176;-70
2022/11/26 12:03:56;;;;;;;14.77;2.40;;;18.40;75.00;;;;;;5034212;28;20548;-72
2022/11/26 12:07:07;;;;;;;12.20;2.33;;;18.40;75.00;;;;;;5057391;28;20186;-70
2022/11/26 12:09:52;;;;;;;11.53;2.43;;;18.40;75.20;;;;;;5037263;28;20176;-70
2022/11/26 12:12:32;;;;;;;13.37;2.13;;;18.40;75.30;;;;;;5044403;28;20242;-70
2022/11/26 12:15:26;;;;;;;9.10;2.50;;;18.30;75.10;;;;;;5033923;28;20176;-70
2022/11/26 12:18:14;;;;;;;10.30;1.80;;;18.30;75.10;;;;;;5043056;28;20576;-71
2022/11/26 12:21:03;;;;;;;12.67;2.37;;;18.30;75.40;;;;;;5048244;28;20274;-69
2022/11/26 12:23:59;;;;;;;9.13;2.43;;;18.30;75.40;;;;;;5033643;28;20179;-69
2022/11/26 12:26:47;;;;;;;7.33;2.10;;;18.20;75.90;;;;;;5041805;28;20220;-70
2022/11/26 12:29:27;;;;;;;7.47;1.83;;;18.20;75.90;;;;;;5047827;28;20228;-70
2022/11/26 12:32:02;;;;;;;13.03;2.27;;;18.20;76.00;;;;;;5034205;28;20183;-69
2022/11/26 12:34:43;;;;;;;14.90;2.27;;;18.20;76.00;;;;;;5033598;28;20179;-70
2022/11/26 12:37:33;;;;;;;12.87;2.47;;;18.20;76.30;;;;;;5039820;28;20650;-70
2022/11/26 12:40:18;;;;;;;9.07;2.27;;;18.20;76.40;;;;;;5043879;28;20195;-69
2022/11/26 12:42:52;;;;;;;8.47;2.37;;;18.10;76.30;;;;;;5033244;28;20183;-69
2022/11/26 12:45:34;;;;;;;11.20;2.10;;;18.00;76.40;;;;;;5033452;28;20262;-70
2022/11/26 12:48:15;;;;;;;9.53;2.17;;;18.00;76.60;;;;;;5042804;28;20554;-69
2022/11/26 12:51:01;;;;;;;8.77;2.13;;;18.10;76.60;;;;;;5033280;28;20246;-70
2022/11/26 12:53:47;;;;;;;9.97;2.40;;;18.10;76.30;;;;;;5047153;28;20224;-69
2022/11/26 12:56:22;;;;;;;8.80;2.63;;;18.20;76.20;;;;;;5043561;28;20180;-71
2022/11/26 12:59:02;;;;;;;9.77;1.77;;;18.10;76.40;;;;;;5038327;28;20264;-71
2022/11/26 13:01:32;;;;;;;10.30;2.23;;;18.00;76.50;;;;;;5033744;28;20183;-71
2022/11/26 13:04:00;;;;;;;14.77;2.63;;;18.10;76.20;;;;;;5033468;28;20173;-70
2022/11/26 13:06:42;;;;;;;9.70;2.17;;;18.00;76.40;;;;;;5041438;28;20188;-70
2022/11/26 13:09:13;;;;;;;6.87;2.37;;;18.10;76.50;;;;;;5074242;28;20188;-70
2022/11/26 13:11:46;;;;;;;10.93;2.00;;;18.10;76.60;;;;;;5050863;28;20187;-70
2022/11/26 13:14:23;;;;;;;10.00;2.10;;;18.10;76.40;;;;;;5047839;28;20188;-70